createdAt,value
2019-03-31T00:00:07.730Z,8.94
2019-03-31T00:01:08.589Z,8.88
2019-03-31T00:02:07.523Z,8.91
2019-03-31T00:03:07.419Z,8.94
2019-03-31T00:04:07.316Z,8.79
2019-03-31T00:05:07.216Z,8.88
2019-03-31T00:06:07.111Z,8.89
2019-03-31T00:07:07.007Z,8.91
2019-03-31T00:08:06.905Z,8.89
2019-03-31T00:09:06.802Z,8.88
2019-03-31T00:10:06.698Z,8.91
2019-03-31T00:11:06.599Z,8.85
2019-03-31T00:12:06.496Z,8.87
2019-03-31T00:13:06.413Z,8.88
2019-03-31T00:14:06.286Z,8.82
2019-03-31T00:15:06.183Z,8.81
2019-03-31T00:16:06.079Z,8.87
2019-03-31T00:17:05.980Z,8.84
2019-03-31T00:18:05.876Z,8.81
2019-03-31T00:19:05.768Z,8.74
2019-03-31T00:20:05.668Z,8.73
2019-03-31T00:21:05.565Z,8.81
2019-03-31T00:22:05.459Z,8.74
2019-03-31T00:23:05.357Z,8.76
2019-03-31T00:24:05.256Z,8.73
2019-03-31T00:25:05.153Z,8.76
2019-03-31T00:26:05.050Z,8.67
2019-03-31T00:27:04.947Z,8.60
2019-03-31T00:28:04.850Z,8.69
2019-03-31T00:29:04.741Z,8.52
2019-03-31T00:30:04.638Z,8.51
2019-03-31T00:31:04.532Z,8.46
2019-03-31T00:32:04.462Z,8.48
2019-03-31T00:33:04.380Z,8.46
2019-03-31T00:34:04.224Z,8.45
2019-03-31T00:35:04.119Z,8.51
2019-03-31T00:36:04.018Z,8.45
2019-03-31T00:37:03.914Z,8.46
2019-03-31T00:38:03.812Z,8.46
2019-03-31T00:39:03.708Z,8.46
2019-03-31T00:40:03.604Z,8.45
2019-03-31T00:41:03.503Z,8.46
2019-03-31T00:42:03.413Z,8.44
2019-03-31T00:43:03.295Z,8.46
2019-03-31T00:44:03.190Z,8.33
2019-03-31T00:45:03.088Z,8.33
2019-03-31T00:46:02.984Z,8.37
2019-03-31T00:47:02.886Z,8.37
2019-03-31T00:48:02.777Z,8.37
2019-03-31T00:49:02.681Z,8.36
2019-03-31T00:50:02.569Z,8.30
2019-03-31T00:51:02.467Z,8.28
2019-03-31T00:52:02.427Z,8.28
2019-03-31T00:53:02.259Z,8.28
2019-03-31T00:54:02.157Z,8.30
2019-03-31T00:55:02.054Z,8.34
2019-03-31T00:56:01.953Z,8.44
2019-03-31T00:57:01.849Z,8.49
2019-03-31T00:58:01.749Z,8.58
2019-03-31T00:59:01.641Z,8.67
2019-03-31T01:00:01.543Z,8.76
2019-03-31T01:01:01.436Z,8.84
2019-03-31T01:02:01.331Z,8.85
2019-03-31T01:03:01.227Z,8.85
2019-03-31T01:04:01.122Z,8.92
2019-03-31T01:05:01.024Z,8.95
2019-03-31T01:06:00.916Z,8.91
2019-03-31T01:07:00.812Z,8.99
2019-03-31T01:08:00.713Z,9.14
2019-03-31T01:09:00.607Z,9.19
2019-03-31T01:10:00.505Z,9.23
2019-03-31T01:11:00.418Z,9.28
2019-03-31T01:12:00.351Z,9.34
2019-03-31T01:13:00.193Z,9.47
2019-03-31T01:14:00.087Z,9.47
2019-03-31T01:14:59.987Z,9.56
2019-03-31T01:15:59.883Z,9.59
2019-03-31T01:17:00.079Z,9.58
2019-03-31T01:17:59.673Z,9.68
2019-03-31T01:18:59.572Z,9.84
2019-03-31T01:19:59.468Z,9.82
2019-03-31T01:20:59.366Z,9.87
2019-03-31T01:21:59.261Z,9.89
2019-03-31T01:22:59.159Z,9.84
2019-03-31T01:23:59.057Z,9.92
2019-03-31T01:24:58.952Z,9.98
2019-03-31T01:26:00.530Z,9.92
2019-03-31T01:26:58.751Z,9.98
2019-03-31T01:27:58.640Z,10.04
2019-03-31T01:28:58.541Z,10.01
2019-03-31T01:29:58.434Z,10.01
2019-03-31T01:30:58.385Z,10.05
2019-03-31T01:31:58.241Z,10.05
2019-03-31T01:32:58.124Z,10.13
2019-03-31T01:33:58.020Z,10.04
2019-03-31T01:34:57.917Z,10.07
2019-03-31T01:35:57.814Z,10.07
2019-03-31T01:36:57.710Z,10.02
2019-03-31T01:37:57.606Z,10.05
2019-03-31T01:38:57.504Z,10.15
2019-03-31T01:39:57.399Z,10.07
2019-03-31T01:40:57.297Z,10.13
2019-03-31T01:41:57.194Z,10.09
2019-03-31T01:42:57.091Z,10.09
2019-03-31T01:43:56.984Z,10.04
2019-03-31T01:44:56.885Z,10.09
2019-03-31T01:45:56.780Z,10.09
2019-03-31T01:46:56.676Z,10.04
2019-03-31T01:47:56.574Z,10.04
2019-03-31T01:48:56.471Z,10.04
2019-03-31T01:49:56.378Z,10.10
2019-03-31T01:50:56.294Z,10.02
2019-03-31T01:51:56.160Z,10.02
2019-03-31T01:52:56.057Z,10.10
2019-03-31T01:53:55.954Z,10.01
2019-03-31T01:54:55.853Z,9.94
2019-03-31T01:55:55.750Z,9.99
2019-03-31T01:56:55.645Z,9.98
2019-03-31T01:57:55.543Z,9.95
2019-03-31T01:58:55.437Z,9.84
2019-03-31T01:59:55.338Z,9.82
2019-03-31T02:00:55.229Z,9.83
2019-03-31T02:02:04.108Z,9.79
2019-03-31T02:02:55.024Z,9.77
2019-03-31T02:03:54.929Z,9.76
2019-03-31T02:04:54.816Z,9.77
2019-03-31T02:05:54.711Z,9.80
2019-03-31T02:06:54.610Z,9.82
2019-03-31T02:07:54.506Z,9.77
2019-03-31T02:08:54.402Z,9.74
2019-03-31T02:09:54.338Z,9.73
2019-03-31T02:10:54.270Z,9.68
2019-03-31T02:11:54.095Z,9.68
2019-03-31T02:12:53.994Z,9.64
2019-03-31T02:13:53.885Z,9.72
2019-03-31T02:14:53.784Z,9.68
2019-03-31T02:15:53.680Z,9.69
2019-03-31T02:16:53.574Z,9.65
2019-03-31T02:17:53.475Z,9.64
2019-03-31T02:18:53.369Z,9.65
2019-03-31T02:19:53.268Z,9.64
2019-03-31T02:20:53.163Z,9.62
2019-03-31T02:21:53.059Z,9.68
2019-03-31T02:22:52.956Z,9.64
2019-03-31T02:23:52.853Z,9.58
2019-03-31T02:24:52.757Z,9.56
2019-03-31T02:25:52.646Z,9.58
2019-03-31T02:26:52.542Z,9.51
2019-03-31T02:27:52.439Z,9.51
2019-03-31T02:28:52.337Z,9.44
2019-03-31T02:29:52.258Z,9.43
2019-03-31T02:30:52.133Z,9.37
2019-03-31T02:31:52.028Z,9.37
2019-03-31T02:32:51.924Z,9.41
2019-03-31T02:33:51.830Z,9.28
2019-03-31T02:34:51.720Z,9.32
2019-03-31T02:35:51.622Z,9.31
2019-03-31T02:36:51.510Z,9.28
2019-03-31T02:37:51.406Z,9.16
2019-03-31T02:38:51.301Z,9.23
2019-03-31T02:39:51.199Z,9.25
2019-03-31T02:40:51.095Z,9.21
2019-03-31T02:41:50.992Z,9.16
2019-03-31T02:42:50.890Z,9.13
2019-03-31T02:43:50.791Z,9.19
2019-03-31T02:44:50.686Z,9.03
2019-03-31T02:45:50.577Z,9.14
2019-03-31T02:46:50.474Z,9.06
2019-03-31T02:47:50.371Z,8.99
2019-03-31T02:48:50.296Z,9.02
2019-03-31T02:49:50.227Z,9.13
2019-03-31T02:50:50.062Z,8.92
2019-03-31T02:51:49.966Z,8.95
2019-03-31T02:52:49.856Z,8.95
2019-03-31T02:53:49.753Z,8.87
2019-03-31T02:54:49.647Z,8.89
2019-03-31T02:55:49.547Z,8.92
2019-03-31T02:56:49.442Z,8.88
2019-03-31T02:57:49.337Z,8.79
2019-03-31T02:58:49.241Z,8.82
2019-03-31T02:59:49.130Z,8.74
2019-03-31T03:00:49.032Z,8.71
2019-03-31T03:01:49.222Z,8.73
2019-03-31T03:02:48.820Z,8.64
2019-03-31T03:03:48.715Z,8.69
2019-03-31T03:04:48.614Z,8.64
2019-03-31T03:05:48.511Z,8.58
2019-03-31T03:06:48.408Z,8.53
2019-03-31T03:07:48.301Z,8.49
2019-03-31T03:08:48.277Z,8.58
2019-03-31T03:09:48.096Z,8.51
2019-03-31T03:10:47.991Z,8.46
2019-03-31T03:11:47.886Z,8.38
2019-03-31T03:12:47.782Z,8.42
2019-03-31T03:13:47.680Z,8.36
2019-03-31T03:14:47.585Z,8.30
2019-03-31T03:15:47.474Z,8.33
2019-03-31T03:16:47.374Z,8.27
2019-03-31T03:17:47.270Z,8.30
2019-03-31T03:18:47.163Z,8.34
2019-03-31T03:19:47.064Z,8.33
2019-03-31T03:20:46.961Z,8.16
2019-03-31T03:21:46.856Z,8.23
2019-03-31T03:22:46.749Z,8.23
2019-03-31T03:23:46.645Z,8.24
2019-03-31T03:24:46.541Z,8.20
2019-03-31T03:25:55.682Z,8.19
2019-03-31T03:26:46.340Z,8.15
2019-03-31T03:27:46.250Z,8.16
2019-03-31T03:28:46.187Z,8.13
2019-03-31T03:29:46.022Z,8.19
2019-03-31T03:30:46.154Z,8.12
2019-03-31T03:31:45.856Z,8.13
2019-03-31T03:33:11.894Z,8.12
2019-03-31T03:33:45.609Z,8.10
2019-03-31T03:34:45.501Z,8.09
2019-03-31T03:35:45.409Z,8.12
2019-03-31T03:36:45.295Z,8.10
2019-03-31T03:37:45.190Z,8.12
2019-03-31T03:38:45.093Z,8.08
2019-03-31T03:39:44.984Z,8.08
2019-03-31T03:40:44.878Z,8.00
2019-03-31T03:41:44.777Z,8.03
2019-03-31T03:42:44.671Z,8.00
2019-03-31T03:43:55.251Z,7.95
2019-03-31T03:44:44.463Z,8.05
2019-03-31T03:45:44.360Z,8.06
2019-03-31T03:46:44.256Z,8.08
2019-03-31T03:47:44.237Z,8.08
2019-03-31T03:48:44.047Z,8.06
2019-03-31T03:49:43.949Z,8.09
2019-03-31T03:50:43.839Z,8.12
2019-03-31T03:51:43.735Z,8.15
2019-03-31T03:52:43.638Z,8.16
2019-03-31T03:53:43.526Z,8.09
2019-03-31T03:54:43.423Z,8.09
2019-03-31T03:55:43.340Z,8.05
2019-03-31T03:56:43.214Z,8.06
2019-03-31T03:57:43.111Z,7.97
2019-03-31T03:58:43.006Z,7.98
2019-03-31T03:59:42.906Z,8.10
2019-03-31T04:00:42.802Z,8.06
2019-03-31T04:01:42.695Z,8.08
2019-03-31T04:02:42.591Z,8.06
2019-03-31T04:03:42.486Z,8.08
2019-03-31T04:04:42.391Z,8.08
2019-03-31T04:05:42.280Z,8.06
2019-03-31T04:06:42.220Z,8.06
2019-03-31T04:07:42.140Z,8.08
2019-03-31T04:08:41.982Z,8.03
2019-03-31T04:09:41.864Z,8.06
2019-03-31T04:10:41.758Z,8.06
2019-03-31T04:11:41.656Z,8.06
2019-03-31T04:12:41.553Z,8.01
2019-03-31T04:13:41.448Z,8.08
2019-03-31T04:14:41.343Z,8.05
2019-03-31T04:15:41.242Z,8.08
2019-03-31T04:16:41.142Z,8.08
2019-03-31T04:17:41.028Z,8.03
2019-03-31T04:18:40.932Z,8.09
2019-03-31T04:19:40.830Z,8.05
2019-03-31T04:20:40.722Z,8.09
2019-03-31T04:21:40.918Z,7.95
2019-03-31T04:22:40.510Z,8.00
2019-03-31T04:23:40.406Z,7.98
2019-03-31T04:24:40.301Z,8.01
2019-03-31T04:25:40.232Z,7.98
2019-03-31T04:26:40.181Z,7.94
2019-03-31T04:27:39.989Z,7.94
2019-03-31T04:28:39.982Z,7.98
2019-03-31T04:29:39.784Z,7.94
2019-03-31T04:30:39.677Z,7.87
2019-03-31T04:31:39.571Z,7.87
2019-03-31T04:32:39.473Z,7.85
2019-03-31T04:33:50.684Z,7.87
2019-03-31T04:34:39.256Z,7.85
2019-03-31T04:35:39.153Z,7.93
2019-03-31T04:36:39.046Z,7.88
2019-03-31T04:37:38.947Z,7.83
2019-03-31T04:38:38.844Z,7.87
2019-03-31T04:39:38.735Z,7.82
2019-03-31T04:40:38.636Z,7.80
2019-03-31T04:41:38.524Z,7.88
2019-03-31T04:42:38.424Z,7.83
2019-03-31T04:43:38.316Z,7.85
2019-03-31T04:44:38.214Z,7.83
2019-03-31T04:45:38.154Z,7.82
2019-03-31T04:46:38.092Z,7.76
2019-03-31T04:47:37.902Z,7.80
2019-03-31T04:48:37.802Z,7.75
2019-03-31T04:49:37.695Z,7.77
2019-03-31T04:50:37.587Z,7.85
2019-03-31T04:51:37.486Z,7.76
2019-03-31T04:52:37.380Z,7.80
2019-03-31T04:53:37.275Z,7.80
2019-03-31T04:54:37.171Z,7.76
2019-03-31T04:55:37.064Z,7.83
2019-03-31T04:56:36.959Z,7.82
2019-03-31T04:57:36.856Z,7.85
2019-03-31T04:58:36.753Z,7.88
2019-03-31T04:59:36.650Z,7.82
2019-03-31T05:00:36.543Z,7.80
2019-03-31T05:01:36.439Z,7.93
2019-03-31T05:02:36.335Z,7.88
2019-03-31T05:03:36.230Z,8.01
2019-03-31T05:04:36.126Z,8.03
2019-03-31T05:05:36.075Z,7.97
2019-03-31T05:06:35.917Z,7.94
2019-03-31T05:07:35.813Z,7.98
2019-03-31T05:08:35.706Z,8.09
2019-03-31T05:09:35.603Z,8.10
2019-03-31T05:10:35.499Z,8.10
2019-03-31T05:11:35.394Z,8.13
2019-03-31T05:12:35.292Z,8.19
2019-03-31T05:13:35.186Z,8.27
2019-03-31T05:14:35.083Z,8.18
2019-03-31T05:15:34.982Z,8.31
2019-03-31T05:16:34.875Z,8.36
2019-03-31T05:17:35.971Z,8.28
2019-03-31T05:18:34.666Z,8.37
2019-03-31T05:19:34.561Z,8.36
2019-03-31T05:20:34.460Z,8.37
2019-03-31T05:21:34.357Z,8.38
2019-03-31T05:22:34.251Z,8.37
2019-03-31T05:23:34.148Z,8.37
2019-03-31T05:24:34.102Z,8.42
2019-03-31T05:25:33.960Z,8.41
2019-03-31T05:26:33.834Z,8.56
2019-03-31T05:27:33.734Z,8.53
2019-03-31T05:28:33.718Z,8.60
2019-03-31T05:29:33.525Z,8.64
2019-03-31T05:30:33.419Z,8.73
2019-03-31T05:31:33.317Z,8.70
2019-03-31T05:32:33.215Z,8.82
2019-03-31T05:33:33.109Z,8.94
2019-03-31T05:34:33.005Z,8.87
2019-03-31T05:35:32.902Z,8.92
2019-03-31T05:36:32.800Z,8.95
2019-03-31T05:37:32.694Z,8.89
2019-03-31T05:38:32.593Z,8.94
2019-03-31T05:39:32.489Z,9.04
2019-03-31T05:40:32.385Z,9.10
2019-03-31T05:41:32.279Z,9.18
2019-03-31T05:42:32.180Z,9.08
2019-03-31T05:43:32.093Z,9.11
2019-03-31T05:44:32.005Z,9.08
2019-03-31T05:45:31.868Z,9.14
2019-03-31T05:46:31.765Z,9.02
2019-03-31T05:47:31.665Z,8.99
2019-03-31T05:48:31.559Z,9.11
2019-03-31T05:49:31.454Z,8.99
2019-03-31T05:50:31.352Z,9.04
2019-03-31T05:51:31.250Z,9.14
2019-03-31T05:52:31.146Z,8.94
2019-03-31T05:53:31.051Z,8.87
2019-03-31T05:54:30.941Z,8.79
2019-03-31T05:55:30.837Z,8.66
2019-03-31T05:56:30.733Z,8.66
2019-03-31T05:57:30.629Z,8.63
2019-03-31T05:58:30.528Z,8.63
2019-03-31T05:59:30.423Z,8.63
2019-03-31T06:00:30.320Z,8.61
2019-03-31T06:01:30.218Z,8.58
2019-03-31T06:02:30.115Z,8.60
2019-03-31T06:03:30.054Z,8.63
2019-03-31T06:04:33.349Z,8.67
2019-03-31T06:05:29.803Z,8.63
2019-03-31T06:06:29.702Z,8.74
2019-03-31T06:07:29.602Z,8.60
2019-03-31T06:08:29.495Z,8.52
2019-03-31T06:09:29.391Z,8.52
2019-03-31T06:10:29.289Z,8.53
2019-03-31T06:11:29.184Z,8.48
2019-03-31T06:12:29.081Z,8.36
2019-03-31T06:13:28.977Z,8.36
2019-03-31T06:14:28.880Z,8.31
2019-03-31T06:15:28.774Z,8.30
2019-03-31T06:16:28.670Z,8.33
2019-03-31T06:17:28.563Z,8.37
2019-03-31T06:18:28.463Z,8.28
2019-03-31T06:19:28.359Z,8.26
2019-03-31T06:20:28.256Z,8.33
2019-03-31T06:21:29.272Z,8.38
2019-03-31T06:22:28.068Z,8.27
2019-03-31T06:23:27.974Z,8.34
2019-03-31T06:24:27.844Z,8.37
2019-03-31T06:25:27.743Z,8.30
2019-03-31T06:26:27.635Z,8.45
2019-03-31T06:27:27.532Z,8.51
2019-03-31T06:28:27.430Z,8.58
2019-03-31T06:29:27.324Z,8.55
2019-03-31T06:30:27.221Z,8.63
2019-03-31T06:31:27.118Z,8.58
2019-03-31T06:32:27.015Z,8.56
2019-03-31T06:33:26.911Z,8.45
2019-03-31T06:34:26.810Z,8.45
2019-03-31T06:35:26.705Z,8.58
2019-03-31T06:36:26.602Z,9.08
2019-03-31T06:37:26.498Z,9.69
2019-03-31T06:38:26.395Z,9.39
2019-03-31T06:39:26.292Z,9.64
2019-03-31T06:40:26.188Z,10.05
2019-03-31T06:41:26.082Z,10.13
2019-03-31T06:42:26.015Z,10.51
2019-03-31T06:43:25.935Z,10.69
2019-03-31T06:44:25.778Z,10.76
2019-03-31T06:45:25.674Z,10.76
2019-03-31T06:46:25.571Z,11.00
2019-03-31T06:47:25.471Z,11.08
2019-03-31T06:48:25.368Z,11.17
2019-03-31T06:49:25.265Z,10.96
2019-03-31T06:50:25.164Z,11.27
2019-03-31T06:51:25.063Z,11.37
2019-03-31T06:52:24.961Z,11.14
2019-03-31T06:53:24.856Z,11.04
2019-03-31T06:54:24.760Z,10.56
2019-03-31T06:55:24.658Z,10.75
2019-03-31T06:56:24.554Z,11.11
2019-03-31T06:57:24.456Z,11.45
2019-03-31T06:58:24.363Z,11.47
2019-03-31T06:59:24.252Z,11.69
2019-03-31T07:00:24.150Z,11.83
2019-03-31T07:01:24.050Z,11.84
2019-03-31T07:02:23.980Z,12.06
2019-03-31T07:03:23.907Z,12.10
2019-03-31T07:04:23.747Z,11.84
2019-03-31T07:05:23.646Z,12.09
2019-03-31T07:06:23.545Z,11.86
2019-03-31T07:07:23.961Z,11.66
2019-03-31T07:08:23.350Z,11.59
2019-03-31T07:09:23.245Z,11.40
2019-03-31T07:10:23.146Z,11.48
2019-03-31T07:11:23.046Z,11.52
2019-03-31T07:12:22.945Z,11.72
2019-03-31T07:13:22.845Z,11.66
2019-03-31T07:14:22.745Z,11.73
2019-03-31T07:15:22.645Z,11.40
2019-03-31T07:16:22.545Z,11.04
2019-03-31T07:17:22.453Z,10.59
2019-03-31T07:18:22.346Z,10.60
2019-03-31T07:19:22.246Z,10.34
2019-03-31T07:20:22.144Z,10.25
2019-03-31T07:21:22.044Z,10.09
2019-03-31T07:22:24.318Z,10.15
2019-03-31T07:23:21.891Z,10.07
2019-03-31T07:24:21.743Z,9.89
2019-03-31T07:25:21.643Z,9.86
2019-03-31T07:26:21.540Z,10.04
2019-03-31T07:27:21.440Z,9.95
2019-03-31T07:28:21.340Z,9.76
2019-03-31T07:29:21.237Z,9.74
2019-03-31T07:30:21.138Z,9.68
2019-03-31T07:31:21.036Z,9.80
2019-03-31T07:32:20.936Z,9.89
2019-03-31T07:33:20.836Z,10.12
2019-03-31T07:34:20.729Z,10.10
2019-03-31T07:35:20.632Z,10.17
2019-03-31T07:36:20.538Z,10.44
2019-03-31T07:37:20.429Z,10.46
2019-03-31T07:38:20.569Z,10.59
2019-03-31T07:39:20.382Z,10.54
2019-03-31T07:40:20.244Z,10.49
2019-03-31T07:41:20.161Z,10.54
2019-03-31T07:42:19.957Z,10.49
2019-03-31T07:43:20.012Z,10.59
2019-03-31T07:44:19.719Z,10.49
2019-03-31T07:45:19.617Z,10.40
2019-03-31T07:46:19.517Z,10.48
2019-03-31T07:47:19.418Z,10.63
2019-03-31T07:48:19.314Z,10.64
2019-03-31T07:49:19.216Z,10.67
2019-03-31T07:50:19.112Z,10.56
2019-03-31T07:51:19.009Z,10.31
2019-03-31T07:52:18.987Z,10.34
2019-03-31T07:53:18.812Z,10.35
2019-03-31T07:54:18.710Z,10.30
2019-03-31T07:55:18.609Z,10.20
2019-03-31T07:56:18.510Z,10.33
2019-03-31T07:57:18.403Z,10.41
2019-03-31T07:58:18.311Z,10.35
2019-03-31T07:59:18.242Z,10.28
2019-03-31T08:00:18.102Z,10.23
2019-03-31T08:01:18.001Z,10.20
2019-03-31T08:02:17.909Z,10.20
2019-03-31T08:03:17.853Z,10.25
2019-03-31T08:04:17.697Z,10.33
2019-03-31T08:05:17.594Z,10.28
2019-03-31T08:06:17.499Z,10.37
2019-03-31T08:07:17.393Z,10.44
2019-03-31T08:08:17.291Z,10.46
2019-03-31T08:09:17.191Z,10.56
2019-03-31T08:10:17.089Z,10.59
2019-03-31T08:11:17.245Z,10.72
2019-03-31T08:12:16.889Z,10.76
2019-03-31T08:13:16.785Z,10.92
2019-03-31T08:14:16.690Z,10.72
2019-03-31T08:15:16.581Z,10.75
2019-03-31T08:16:16.485Z,10.60
2019-03-31T08:17:16.380Z,10.59
2019-03-31T08:18:16.278Z,10.56
2019-03-31T08:19:16.180Z,10.57
2019-03-31T08:20:16.080Z,10.64
2019-03-31T08:21:15.976Z,10.60
2019-03-31T08:22:15.905Z,10.59
2019-03-31T08:23:15.844Z,10.54
2019-03-31T08:24:15.675Z,10.49
2019-03-31T08:25:15.572Z,10.34
2019-03-31T08:26:15.470Z,10.42
2019-03-31T08:27:15.369Z,10.44
2019-03-31T08:28:15.269Z,10.42
2019-03-31T08:29:15.166Z,10.64
2019-03-31T08:30:15.066Z,10.57
2019-03-31T08:31:14.965Z,10.46
2019-03-31T08:32:14.864Z,10.49
2019-03-31T08:33:14.764Z,10.44
2019-03-31T08:34:14.661Z,10.48
2019-03-31T08:35:14.560Z,10.42
2019-03-31T08:36:14.458Z,10.61
2019-03-31T08:37:14.358Z,10.63
2019-03-31T08:38:14.257Z,10.72
2019-03-31T08:39:14.156Z,10.89
2019-03-31T08:40:14.053Z,11.04
2019-03-31T08:41:13.953Z,11.29
2019-03-31T08:42:13.867Z,11.43
2019-03-31T08:43:13.802Z,11.63
2019-03-31T08:44:13.650Z,11.59
2019-03-31T08:45:13.550Z,11.54
2019-03-31T08:46:13.447Z,11.48
2019-03-31T08:47:13.343Z,11.65
2019-03-31T08:48:13.249Z,11.70
2019-03-31T08:49:13.146Z,11.59
2019-03-31T08:50:13.044Z,11.52
2019-03-31T08:51:12.945Z,11.47
2019-03-31T08:52:12.845Z,11.27
2019-03-31T08:53:12.743Z,11.15
2019-03-31T08:54:12.642Z,11.15
2019-03-31T08:55:12.539Z,11.18
2019-03-31T08:56:12.444Z,11.05
2019-03-31T08:57:12.340Z,11.11
2019-03-31T08:58:12.242Z,11.12
2019-03-31T08:59:12.142Z,11.23
2019-03-31T09:00:12.040Z,11.33
2019-03-31T09:01:11.939Z,11.50
2019-03-31T09:02:11.839Z,11.50
2019-03-31T09:03:11.786Z,11.52
2019-03-31T09:04:11.638Z,11.51
2019-03-31T09:05:11.537Z,11.54
2019-03-31T09:06:11.438Z,11.51
2019-03-31T09:07:11.339Z,11.47
2019-03-31T09:08:11.240Z,11.41
2019-03-31T09:09:11.136Z,11.26
2019-03-31T09:10:11.037Z,11.12
2019-03-31T09:11:10.937Z,11.07
2019-03-31T09:12:10.835Z,11.08
2019-03-31T09:13:10.735Z,11.00
2019-03-31T09:14:10.636Z,10.99
2019-03-31T09:15:10.535Z,11.05
2019-03-31T09:16:10.435Z,11.11
2019-03-31T09:17:10.334Z,11.08
2019-03-31T09:18:10.235Z,11.08
2019-03-31T09:19:10.133Z,11.27
2019-03-31T09:20:10.035Z,11.30
2019-03-31T09:21:09.931Z,11.30
2019-03-31T09:22:09.829Z,11.04
2019-03-31T09:23:09.763Z,11.00
2019-03-31T09:24:09.633Z,11.07
2019-03-31T09:25:09.531Z,10.93
2019-03-31T09:26:09.430Z,10.82
2019-03-31T09:27:09.330Z,10.87
2019-03-31T09:28:09.234Z,10.94
2019-03-31T09:29:09.127Z,10.79
2019-03-31T09:30:09.027Z,10.69
2019-03-31T09:31:08.927Z,10.64
2019-03-31T09:32:08.827Z,10.59
2019-03-31T09:33:08.725Z,10.44
2019-03-31T09:34:08.624Z,10.33
2019-03-31T09:35:08.525Z,10.38
2019-03-31T09:36:16.126Z,10.34
2019-03-31T09:37:08.322Z,10.17
2019-03-31T09:38:08.222Z,10.28
2019-03-31T09:39:08.123Z,10.33
2019-03-31T09:40:08.019Z,10.25
2019-03-31T09:41:08.215Z,10.23
2019-03-31T09:42:07.815Z,10.33
2019-03-31T09:43:07.794Z,10.41
2019-03-31T09:44:07.614Z,10.30
2019-03-31T09:45:07.511Z,10.30
2019-03-31T09:46:07.410Z,10.34
2019-03-31T09:47:07.312Z,10.37
2019-03-31T09:48:07.211Z,10.42
2019-03-31T09:49:07.106Z,10.63
2019-03-31T09:50:07.005Z,10.71
2019-03-31T09:51:06.901Z,10.75
2019-03-31T09:52:06.801Z,10.74
2019-03-31T09:53:06.701Z,10.84
2019-03-31T09:54:06.601Z,11.00
2019-03-31T09:55:06.498Z,11.07
2019-03-31T09:56:06.399Z,11.19
2019-03-31T09:57:06.296Z,11.44
2019-03-31T09:58:06.195Z,11.62
2019-03-31T09:59:06.095Z,11.80
2019-03-31T10:00:05.996Z,11.97
2019-03-31T10:01:08.000Z,12.21
2019-03-31T10:02:05.800Z,12.31
2019-03-31T10:03:05.730Z,12.36
2019-03-31T10:04:05.589Z,12.25
2019-03-31T10:05:05.489Z,12.06
2019-03-31T10:06:11.054Z,11.77
2019-03-31T10:07:05.289Z,11.57
2019-03-31T10:08:05.189Z,11.57
2019-03-31T10:09:05.089Z,11.78
2019-03-31T10:10:04.987Z,12.10
2019-03-31T10:11:04.889Z,12.37
2019-03-31T10:12:04.788Z,12.35
2019-03-31T10:13:04.688Z,12.06
2019-03-31T10:14:04.589Z,12.02
2019-03-31T10:15:04.488Z,11.68
2019-03-31T10:16:04.390Z,11.65
2019-03-31T10:17:04.289Z,11.50
2019-03-31T10:18:04.192Z,11.57
2019-03-31T10:19:04.091Z,11.47
2019-03-31T10:20:03.989Z,11.57
2019-03-31T10:21:03.889Z,11.44
2019-03-31T10:22:03.789Z,11.36
2019-03-31T10:23:03.739Z,11.52
2019-03-31T10:24:03.613Z,11.52
2019-03-31T10:25:03.495Z,11.50
2019-03-31T10:26:03.389Z,11.47
2019-03-31T10:27:03.295Z,11.48
2019-03-31T10:28:03.193Z,11.52
2019-03-31T10:29:03.094Z,11.73
2019-03-31T10:30:02.990Z,11.97
2019-03-31T10:31:02.892Z,12.24
2019-03-31T10:32:02.791Z,12.49
2019-03-31T10:33:02.771Z,12.47
2019-03-31T10:34:02.593Z,12.70
2019-03-31T10:35:02.493Z,12.60
2019-03-31T10:36:02.393Z,12.46
2019-03-31T10:37:02.293Z,12.55
2019-03-31T10:38:02.196Z,12.32
2019-03-31T10:39:02.093Z,12.37
2019-03-31T10:40:01.995Z,12.17
2019-03-31T10:41:01.895Z,12.15
2019-03-31T10:42:01.796Z,12.25
2019-03-31T10:43:01.724Z,12.20
2019-03-31T10:44:01.643Z,12.07
2019-03-31T10:45:01.500Z,12.07
2019-03-31T10:46:01.397Z,11.95
2019-03-31T10:47:01.302Z,11.81
2019-03-31T10:48:01.200Z,11.78
2019-03-31T10:49:01.101Z,11.78
2019-03-31T10:50:01.000Z,11.70
2019-03-31T10:51:00.900Z,11.81
2019-03-31T10:52:00.802Z,11.97
2019-03-31T10:53:00.701Z,11.81
2019-03-31T10:54:00.601Z,11.77
2019-03-31T10:55:00.503Z,11.65
2019-03-31T10:56:00.404Z,11.63
2019-03-31T10:57:00.316Z,11.55
2019-03-31T10:58:00.205Z,11.54
2019-03-31T10:59:00.106Z,11.55
2019-03-31T11:00:00.005Z,11.70
2019-03-31T11:01:00.204Z,11.69
2019-03-31T11:01:59.806Z,11.84
2019-03-31T11:02:59.706Z,11.91
2019-03-31T11:03:59.631Z,11.90
2019-03-31T11:04:59.509Z,11.95
2019-03-31T11:05:59.407Z,12.27
2019-03-31T11:07:03.101Z,12.13
2019-03-31T11:07:59.206Z,12.10
2019-03-31T11:08:59.105Z,12.21
2019-03-31T11:09:59.005Z,12.06
2019-03-31T11:10:58.905Z,12.07
2019-03-31T11:11:58.805Z,12.10
2019-03-31T11:12:58.704Z,12.13
2019-03-31T11:13:58.607Z,11.99
2019-03-31T11:14:58.505Z,11.83
2019-03-31T11:15:58.405Z,11.78
2019-03-31T11:16:58.303Z,12.03
2019-03-31T11:17:58.205Z,12.18
2019-03-31T11:18:58.105Z,12.37
2019-03-31T11:20:00.579Z,12.50
2019-03-31T11:20:57.904Z,12.73
2019-03-31T11:21:57.804Z,13.03
2019-03-31T11:22:57.705Z,13.33
2019-03-31T11:23:57.663Z,13.70
2019-03-31T11:24:57.507Z,13.95
2019-03-31T11:25:57.405Z,14.22
2019-03-31T11:26:57.307Z,13.77
2019-03-31T11:27:57.208Z,13.70
2019-03-31T11:28:57.110Z,13.59
2019-03-31T11:29:57.009Z,13.44
2019-03-31T11:30:56.911Z,13.04
2019-03-31T11:31:56.810Z,12.97
2019-03-31T11:32:56.710Z,12.94
2019-03-31T11:33:56.614Z,12.80
2019-03-31T11:34:56.513Z,12.90
2019-03-31T11:35:56.414Z,12.80
2019-03-31T11:36:56.316Z,12.93
2019-03-31T11:37:56.230Z,12.85
2019-03-31T11:38:56.117Z,12.95
2019-03-31T11:39:56.018Z,12.95
2019-03-31T11:40:55.919Z,12.90
2019-03-31T11:41:55.820Z,13.12
2019-03-31T11:42:55.722Z,13.28
2019-03-31T11:43:55.651Z,13.20
2019-03-31T11:44:55.576Z,13.23
2019-03-31T11:45:55.424Z,13.19
2019-03-31T11:46:55.323Z,13.19
2019-03-31T11:47:55.225Z,13.25
2019-03-31T11:48:55.127Z,13.19
2019-03-31T11:49:55.026Z,13.09
2019-03-31T11:50:54.928Z,12.85
2019-03-31T11:51:54.829Z,12.80
2019-03-31T11:52:54.729Z,12.80
2019-03-31T11:53:54.630Z,12.93
2019-03-31T11:54:54.531Z,13.04
2019-03-31T11:55:54.432Z,13.04
2019-03-31T11:56:54.333Z,12.86
2019-03-31T11:57:54.234Z,12.90
2019-03-31T11:58:54.134Z,13.03
2019-03-31T11:59:54.037Z,12.95
2019-03-31T12:00:53.933Z,12.85
2019-03-31T12:01:53.837Z,12.90
2019-03-31T12:02:53.739Z,12.76
2019-03-31T12:03:53.639Z,12.62
2019-03-31T12:04:53.572Z,12.72
2019-03-31T12:05:53.441Z,12.75
2019-03-31T12:06:53.344Z,12.57
2019-03-31T12:07:53.242Z,12.37
2019-03-31T12:08:53.141Z,12.15
2019-03-31T12:09:53.041Z,12.21
2019-03-31T12:10:52.942Z,12.31
2019-03-31T12:11:52.844Z,12.37
2019-03-31T12:12:52.743Z,12.42
2019-03-31T12:13:52.645Z,12.22
2019-03-31T12:15:00.220Z,12.24
2019-03-31T12:15:52.445Z,12.31
2019-03-31T12:16:52.399Z,12.40
2019-03-31T12:17:52.247Z,12.55
2019-03-31T12:18:52.145Z,12.55
2019-03-31T12:19:52.046Z,12.57
2019-03-31T12:20:51.944Z,12.64
2019-03-31T12:21:51.844Z,12.75
2019-03-31T12:22:51.743Z,12.79
2019-03-31T12:23:51.643Z,12.73
2019-03-31T12:24:51.591Z,12.73
2019-03-31T12:25:51.509Z,12.75
2019-03-31T12:26:51.344Z,12.78
2019-03-31T12:27:51.246Z,13.01
2019-03-31T12:28:51.143Z,13.28
2019-03-31T12:29:51.046Z,13.57
2019-03-31T12:30:50.945Z,13.68
2019-03-31T12:31:50.845Z,13.72
2019-03-31T12:32:50.742Z,13.37
2019-03-31T12:33:50.645Z,13.50
2019-03-31T12:34:50.545Z,13.57
2019-03-31T12:35:50.447Z,13.62
2019-03-31T12:36:50.343Z,13.50
2019-03-31T12:37:50.246Z,13.53
2019-03-31T12:38:53.462Z,13.50
2019-03-31T12:39:50.047Z,13.56
2019-03-31T12:40:49.945Z,13.41
2019-03-31T12:41:49.846Z,13.04
2019-03-31T12:42:49.746Z,12.97
2019-03-31T12:43:49.647Z,12.94
2019-03-31T12:44:49.571Z,12.93
2019-03-31T12:45:49.530Z,12.97
2019-03-31T12:46:49.348Z,13.03
2019-03-31T12:47:49.249Z,13.19
2019-03-31T12:48:49.151Z,13.15
2019-03-31T12:49:49.049Z,13.28
2019-03-31T12:50:48.952Z,13.23
2019-03-31T12:51:48.850Z,13.15
2019-03-31T12:52:51.157Z,13.25
2019-03-31T12:53:50.997Z,13.47
2019-03-31T12:54:48.549Z,13.42
2019-03-31T12:55:59.531Z,13.52
2019-03-31T12:56:48.352Z,13.67
2019-03-31T12:57:51.536Z,13.70
2019-03-31T12:58:48.151Z,13.68
2019-03-31T12:59:48.143Z,13.60
2019-03-31T13:00:47.950Z,13.60
2019-03-31T13:01:47.853Z,13.60
2019-03-31T13:02:47.753Z,13.52
2019-03-31T13:03:47.654Z,13.39